sensor_id;sensor_type;location;lat;lon;timestamp;pressure;altitude;pressure_sealevel;temperature;humidity
74794;BME280;63320;50.768;6.724;2023-08-06T00:02:02;99065.41;;;16.47;79.39
74794;BME280;63320;50.768;6.724;2023-08-06T00:04:28;99073.34;;;16.47;79.54
74794;BME280;63320;50.768;6.724;2023-08-06T00:06:53;99062.31;;;16.42;79.10
74794;BME280;63320;50.768;6.724;2023-08-06T00:09:18;99068.47;;;16.43;79.31
74794;BME280;63320;50.768;6.724;2023-08-06T00:11:44;99065.41;;;16.47;79.23
74794;BME280;63320;50.768;6.724;2023-08-06T00:14:09;99068.06;;;16.47;79.27
74794;BME280;63320;50.768;6.724;2023-08-06T00:16:36;99067.06;;;16.48;79.32
74794;BME280;63320;50.768;6.724;2023-08-06T00:19:01;99066.09;;;16.49;78.77
74794;BME280;63320;50.768;6.724;2023-08-06T00:21:27;99063.16;;;16.43;79.18
74794;BME280;63320;50.768;6.724;2023-08-06T00:23:52;99061.06;;;16.37;79.41
74794;BME280;63320;50.768;6.724;2023-08-06T00:26:17;99066.78;;;16.42;79.37
74794;BME280;63320;50.768;6.724;2023-08-06T00:28:43;99061.31;;;16.24;80.08
74794;BME280;63320;50.768;6.724;2023-08-06T00:31:08;99062.00;;;16.16;80.58
74794;BME280;63320;50.768;6.724;2023-08-06T00:33:35;99059.78;;;16.21;80.32
74794;BME280;63320;50.768;6.724;2023-08-06T00:36:00;99060.06;;;16.28;80.12
74794;BME280;63320;50.768;6.724;2023-08-06T00:38:25;99054.78;;;16.28;79.85
74794;BME280;63320;50.768;6.724;2023-08-06T00:40:51;99059.50;;;16.34;79.57
74794;BME280;63320;50.768;6.724;2023-08-06T00:43:16;99063.16;;;16.43;79.25
74794;BME280;63320;50.768;6.724;2023-08-06T00:45:42;99058.25;;;16.38;79.52
74794;BME280;63320;50.768;6.724;2023-08-06T00:48:08;99058.69;;;16.34;79.58
74794;BME280;63320;50.768;6.724;2023-08-06T00:50:35;99055.03;;;16.44;79.23
74794;BME280;63320;50.768;6.724;2023-08-06T00:53:00;99051.00;;;16.40;79.27
74794;BME280;63320;50.768;6.724;2023-08-06T00:55:27;99051.13;;;16.39;79.42
74794;BME280;63320;50.768;6.724;2023-08-06T00:57:53;99046.41;;;16.42;79.22
74794;BME280;63320;50.768;6.724;2023-08-06T01:00:19;99044.69;;;16.41;79.20
74794;BME280;63320;50.768;6.724;2023-08-06T01:02:45;99053.09;;;16.37;79.23
74794;BME280;63320;50.768;6.724;2023-08-06T01:05:11;99047.09;;;16.35;79.15
74794;BME280;63320;50.768;6.724;2023-08-06T01:07:46;99048.22;;;16.32;78.97
74794;BME280;63320;50.768;6.724;2023-08-06T01:10:24;99053.78;;;16.39;78.41
74794;BME280;63320;50.768;6.724;2023-08-06T01:12:58;99050.56;;;16.35;78.76
74794;BME280;63320;50.768;6.724;2023-08-06T01:15:30;99049.59;;;16.46;78.12
74794;BME280;63320;50.768;6.724;2023-08-06T01:17:58;99057.28;;;16.39;78.39
74794;BME280;63320;50.768;6.724;2023-08-06T01:20:29;99044.44;;;16.44;78.00
74794;BME280;63320;50.768;6.724;2023-08-06T01:22:54;99050.31;;;16.38;78.70
74794;BME280;63320;50.768;6.724;2023-08-06T01:25:19;99050.03;;;16.31;78.80
74794;BME280;63320;50.768;6.724;2023-08-06T01:27:48;99038.13;;;16.16;79.47
74794;BME280;63320;50.768;6.724;2023-08-06T01:30:17;99039.81;;;16.17;79.63
74794;BME280;63320;50.768;6.724;2023-08-06T01:32:48;99038.44;;;16.23;79.21
74794;BME280;63320;50.768;6.724;2023-08-06T01:35:16;99039.13;;;16.35;78.76
74794;BME280;63320;50.768;6.724;2023-08-06T01:37:44;99034.66;;;16.35;78.59
74794;BME280;63320;50.768;6.724;2023-08-06T01:40:10;99034.25;;;16.40;78.67
74794;BME280;63320;50.768;6.724;2023-08-06T01:42:35;99033.81;;;16.44;78.18
74794;BME280;63320;50.768;6.724;2023-08-06T01:45:01;99032.00;;;16.35;78.41
74794;BME280;63320;50.768;6.724;2023-08-06T01:47:26;99031.03;;;16.36;78.42
74794;BME280;63320;50.768;6.724;2023-08-06T01:49:51;99027.00;;;16.42;78.36
74794;BME280;63320;50.768;6.724;2023-08-06T01:52:17;99022.09;;;16.37;78.34
74794;BME280;63320;50.768;6.724;2023-08-06T01:54:43;99015.41;;;16.33;78.42
74794;BME280;63320;50.768;6.724;2023-08-06T01:57:09;99017.47;;;16.29;78.84
74794;BME280;63320;50.768;6.724;2023-08-06T01:59:34;99012.19;;;16.29;78.79
74794;BME280;63320;50.768;6.724;2023-08-06T02:01:59;99003.38;;;16.29;78.58
74794;BME280;63320;50.768;6.724;2023-08-06T02:04:25;99004.38;;;16.38;78.20
74794;BME280;63320;50.768;6.724;2023-08-06T02:06:50;98998.66;;;16.33;78.47
74794;BME280;63320;50.768;6.724;2023-08-06T02:09:15;98997.50;;;16.25;78.55
74794;BME280;63320;50.768;6.724;2023-08-06T02:11:42;98990.81;;;16.21;78.81
74794;BME280;63320;50.768;6.724;2023-08-06T02:14:07;98996.56;;;16.17;79.04
74794;BME280;63320;50.768;6.724;2023-08-06T02:16:33;98991.69;;;16.22;79.00
74794;BME280;63320;50.768;6.724;2023-08-06T02:18:58;98991.78;;;16.30;78.83
74794;BME280;63320;50.768;6.724;2023-08-06T02:21:23;98990.97;;;16.29;79.53
74794;BME280;63320;50.768;6.724;2023-08-06T02:23:49;98992.63;;;16.21;79.85
74794;BME280;63320;50.768;6.724;2023-08-06T02:26:14;98994.44;;;16.11;80.27
74794;BME280;63320;50.768;6.724;2023-08-06T02:28:41;98992.91;;;15.98;81.33
74794;BME280;63320;50.768;6.724;2023-08-06T02:31:06;98988.88;;;16.04;81.58
74794;BME280;63320;50.768;6.724;2023-08-06T02:33:31;98982.72;;;16.03;81.54
74794;BME280;63320;50.768;6.724;2023-08-06T02:36:00;98983.00;;;16.00;82.00
74794;BME280;63320;50.768;6.724;2023-08-06T02:38:25;98976.72;;;15.82;83.35
74794;BME280;63320;50.768;6.724;2023-08-06T02:40:50;98966.53;;;15.77;84.35
74794;BME280;63320;50.768;6.724;2023-08-06T02:43:16;98972.94;;;15.85;84.24
74794;BME280;63320;50.768;6.724;2023-08-06T02:45:42;98976.41;;;15.85;84.23
74794;BME280;63320;50.768;6.724;2023-08-06T02:48:08;98975.03;;;15.91;84.25
74794;BME280;63320;50.768;6.724;2023-08-06T02:50:37;98969.03;;;15.79;84.57
74794;BME280;63320;50.768;6.724;2023-08-06T02:53:03;98972.09;;;15.74;85.24
74794;BME280;63320;50.768;6.724;2023-08-06T02:55:28;98970.44;;;15.83;84.93
74794;BME280;63320;50.768;6.724;2023-08-06T02:57:53;98966.81;;;15.84;84.71
74794;BME280;63320;50.768;6.724;2023-08-06T03:00:19;98961.06;;;15.79;84.50
74794;BME280;63320;50.768;6.724;2023-08-06T03:02:45;98952.97;;;15.90;84.19
74794;BME280;63320;50.768;6.724;2023-08-06T03:05:11;98959.97;;;15.91;83.74
74794;BME280;63320;50.768;6.724;2023-08-06T03:07:36;98954.38;;;15.94;83.85
74794;BME280;63320;50.768;6.724;2023-08-06T03:10:01;98953.56;;;15.94;84.02
74794;BME280;63320;50.768;6.724;2023-08-06T03:12:27;98955.06;;;15.96;83.61
74794;BME280;63320;50.768;6.724;2023-08-06T03:14:52;98951.06;;;15.92;84.09
74794;BME280;63320;50.768;6.724;2023-08-06T03:17:17;98943.78;;;15.94;84.15
74794;BME280;63320;50.768;6.724;2023-08-06T03:19:44;98943.38;;;15.89;85.34
74794;BME280;63320;50.768;6.724;2023-08-06T03:22:10;98941.28;;;15.83;85.52
74794;BME280;63320;50.768;6.724;2023-08-06T03:24:35;98945.03;;;15.80;86.16
74794;BME280;63320;50.768;6.724;2023-08-06T03:27:00;98943.50;;;15.68;87.32
74794;BME280;63320;50.768;6.724;2023-08-06T03:29:26;98936.53;;;15.67;87.65
74794;BME280;63320;50.768;6.724;2023-08-06T03:31:52;98939.44;;;15.74;87.42
74794;BME280;63320;50.768;6.724;2023-08-06T03:34:17;98936.25;;;15.80;87.67
74794;BME280;63320;50.768;6.724;2023-08-06T03:36:44;98933.72;;;15.69;88.15
74794;BME280;63320;50.768;6.724;2023-08-06T03:39:09;98931.34;;;15.66;88.02
74794;BME280;63320;50.768;6.724;2023-08-06T03:41:34;98936.91;;;15.63;88.49
74794;BME280;63320;50.768;6.724;2023-08-06T03:44:00;98934.81;;;15.57;88.88
74794;BME280;63320;50.768;6.724;2023-08-06T03:46:25;98935.28;;;15.71;88.54
74794;BME280;63320;50.768;6.724;2023-08-06T03:48:50;98934.13;;;15.64;88.88
74794;BME280;63320;50.768;6.724;2023-08-06T03:51:16;98922.09;;;15.60;88.85
74794;BME280;63320;50.768;6.724;2023-08-06T03:53:42;98931.72;;;15.61;89.02
74794;BME280;63320;50.768;6.724;2023-08-06T03:56:08;98928.22;;;15.61;89.63
74794;BME280;63320;50.768;6.724;2023-08-06T03:58:33;98926.56;;;15.60;89.45
74794;BME280;63320;50.768;6.724;2023-08-06T04:00:59;98930.09;;;15.79;88.63
74794;BME280;63320;50.768;6.724;2023-08-06T04:03:24;98934.72;;;15.77;88.41
74794;BME280;63320;50.768;6.724;2023-08-06T04:05:50;98929.25;;;15.79;88.07
74794;BME280;63320;50.768;6.724;2023-08-06T04:08:15;98925.38;;;15.83;87.55
74794;BME280;63320;50.768;6.724;2023-08-06T04:10:41;98935.81;;;15.75;87.91
74794;BME280;63320;50.768;6.724;2023-08-06T04:13:07;98929.94;;;15.62;88.41
74794;BME280;63320;50.768;6.724;2023-08-06T04:15:33;98933.31;;;15.83;87.88
74794;BME280;63320;50.768;6.724;2023-08-06T04:17:58;98932.75;;;15.70;87.82
74794;BME280;63320;50.768;6.724;2023-08-06T04:20:24;98933.56;;;15.70;88.31
74794;BME280;63320;50.768;6.724;2023-08-06T04:22:49;98935.41;;;15.79;88.12
74794;BME280;63320;50.768;6.724;2023-08-06T04:25:14;98936.09;;;15.91;87.58
74794;BME280;63320;50.768;6.724;2023-08-06T04:27:41;98934.28;;;15.72;88.49
74794;BME280;63320;50.768;6.724;2023-08-06T04:30:07;98929.66;;;15.65;89.36
74794;BME280;63320;50.768;6.724;2023-08-06T04:32:33;98932.34;;;15.84;89.05
74794;BME280;63320;50.768;6.724;2023-08-06T04:34:58;98932.75;;;15.70;89.30
74794;BME280;63320;50.768;6.724;2023-08-06T04:37:23;98935.53;;;15.68;90.06
74794;BME280;63320;50.768;6.724;2023-08-06T04:39:49;98933.03;;;15.76;89.58
74794;BME280;63320;50.768;6.724;2023-08-06T04:42:14;98922.44;;;15.76;89.94
74794;BME280;63320;50.768;6.724;2023-08-06T04:44:41;98939.88;;;15.79;89.48
74794;BME280;63320;50.768;6.724;2023-08-06T04:47:06;98939.47;;;15.84;89.50
74794;BME280;63320;50.768;6.724;2023-08-06T04:49:31;98939.03;;;15.88;90.05
74794;BME280;63320;50.768;6.724;2023-08-06T04:51:57;98933.59;;;15.99;89.20
74794;BME280;63320;50.768;6.724;2023-08-06T04:54:22;98942.53;;;15.89;89.74
74794;BME280;63320;50.768;6.724;2023-08-06T04:56:47;98938.06;;;15.89;90.28
74794;BME280;63320;50.768;6.724;2023-08-06T04:59:13;98940.16;;;15.95;90.11
74794;BME280;63320;50.768;6.724;2023-08-06T05:01:39;98942.94;;;15.74;91.15
74794;BME280;63320;50.768;6.724;2023-08-06T05:04:05;98948.09;;;15.86;90.83
74794;BME280;63320;50.768;6.724;2023-08-06T05:06:30;98945.59;;;15.84;91.13
74794;BME280;63320;50.768;6.724;2023-08-06T05:08:55;98949.66;;;15.88;91.24
74794;BME280;63320;50.768;6.724;2023-08-06T05:11:21;98941.69;;;15.88;90.91
74794;BME280;63320;50.768;6.724;2023-08-06T05:13:46;98940.03;;;15.87;91.30
74794;BME280;63320;50.768;6.724;2023-08-06T05:16:11;98939.47;;;15.93;90.35
74794;BME280;63320;50.768;6.724;2023-08-06T05:18:38;98945.84;;;15.81;91.03
74794;BME280;63320;50.768;6.724;2023-08-06T05:21:03;98953.81;;;15.91;90.51
74794;BME280;63320;50.768;6.724;2023-08-06T05:23:29;98947.13;;;15.96;90.04
74794;BME280;63320;50.768;6.724;2023-08-06T05:25:54;98955.06;;;15.96;90.10
74794;BME280;63320;50.768;6.724;2023-08-06T05:28:19;98961.34;;;15.76;91.57
74794;BME280;63320;50.768;6.724;2023-08-06T05:30:45;98957.59;;;15.98;90.99
74794;BME280;63320;50.768;6.724;2023-08-06T05:33:10;98956.75;;;15.88;91.46
74794;BME280;63320;50.768;6.724;2023-08-06T05:35:37;98957.88;;;15.95;91.63
74794;BME280;63320;50.768;6.724;2023-08-06T05:38:02;98960.66;;;15.93;90.85
74794;BME280;63320;50.768;6.724;2023-08-06T05:40:27;98957.44;;;15.70;91.61
74794;BME280;63320;50.768;6.724;2023-08-06T05:42:53;98968.75;;;15.82;90.95
74794;BME280;63320;50.768;6.724;2023-08-06T05:45:19;98964.00;;;15.86;91.26
74794;BME280;63320;50.768;6.724;2023-08-06T05:47:44;98970.28;;;15.75;91.32
74794;BME280;63320;50.768;6.724;2023-08-06T05:50:09;98974.22;;;15.50;92.67
74794;BME280;63320;50.768;6.724;2023-08-06T05:52:36;98971.91;;;15.26;94.24
74794;BME280;63320;50.768;6.724;2023-08-06T05:55:01;98977.41;;;15.03;95.54
74794;BME280;63320;50.768;6.724;2023-08-06T05:57:27;98980.16;;;14.92;96.12
74794;BME280;63320;50.768;6.724;2023-08-06T05:59:52;98978.03;;;14.86;96.09
74794;BME280;63320;50.768;6.724;2023-08-06T06:02:17;98981.31;;;15.40;94.83
74794;BME280;63320;50.768;6.724;2023-08-06T06:04:43;98985.25;;;15.15;95.03
74794;BME280;63320;50.768;6.724;2023-08-06T06:07:08;98992.75;;;15.10;95.74
74794;BME280;63320;50.768;6.724;2023-08-06T06:09:35;98988.63;;;15.17;94.72
74794;BME280;63320;50.768;6.724;2023-08-06T06:12:00;98984.41;;;15.54;94.16
74794;BME280;63320;50.768;6.724;2023-08-06T06:14:25;98997.53;;;15.46;93.07
74794;BME280;63320;50.768;6.724;2023-08-06T06:16:51;98996.78;;;15.35;94.00
74794;BME280;63320;50.768;6.724;2023-08-06T06:19:16;98999.78;;;15.61;93.33
74794;BME280;63320;50.768;6.724;2023-08-06T06:21:41;98998.25;;;15.58;92.43
74794;BME280;63320;50.768;6.724;2023-08-06T06:24:07;99004.94;;;15.52;92.85
74794;BME280;63320;50.768;6.724;2023-08-06T06:26:33;99007.66;;;15.72;92.67
74794;BME280;63320;50.768;6.724;2023-08-06T06:28:59;99003.66;;;15.87;92.24
74794;BME280;63320;50.768;6.724;2023-08-06T06:31:24;99018.41;;;15.80;91.59
74794;BME280;63320;50.768;6.724;2023-08-06T06:33:49;99014.78;;;15.71;92.01
74794;BME280;63320;50.768;6.724;2023-08-06T06:36:15;99006.31;;;15.97;91.73
74794;BME280;63320;50.768;6.724;2023-08-06T06:38:40;99017.44;;;15.91;91.21
74794;BME280;63320;50.768;6.724;2023-08-06T06:41:05;99013.56;;;15.95;90.04
74794;BME280;63320;50.768;6.724;2023-08-06T06:43:32;99015.63;;;15.82;90.31
74794;BME280;63320;50.768;6.724;2023-08-06T06:45:58;99018.44;;;15.99;89.65
74794;BME280;63320;50.768;6.724;2023-08-06T06:48:25;99016.91;;;16.26;88.43
74794;BME280;63320;50.768;6.724;2023-08-06T06:50:50;99016.78;;;15.98;88.76
74794;BME280;63320;50.768;6.724;2023-08-06T06:53:16;99025.13;;;15.94;90.29
74794;BME280;63320;50.768;6.724;2023-08-06T06:55:41;99025.03;;;16.24;88.41
74794;BME280;63320;50.768;6.724;2023-08-06T06:58:06;99028.09;;;16.39;88.51
74794;BME280;63320;50.768;6.724;2023-08-06T07:00:35;99021.13;;;16.19;89.39
74794;BME280;63320;50.768;6.724;2023-08-06T07:03:00;99028.50;;;16.05;89.09
74794;BME280;63320;50.768;6.724;2023-08-06T07:05:26;99025.81;;;15.86;88.63
74794;BME280;63320;50.768;6.724;2023-08-06T07:07:52;99030.38;;;15.74;88.42
74794;BME280;63320;50.768;6.724;2023-08-06T07:10:17;99028.59;;;15.85;89.15
74794;BME280;63320;50.768;6.724;2023-08-06T07:12:42;99035.97;;;15.81;88.53
74794;BME280;63320;50.768;6.724;2023-08-06T07:15:08;99037.75;;;15.71;87.92
74794;BME280;63320;50.768;6.724;2023-08-06T07:17:35;99043.63;;;15.65;88.27
74794;BME280;63320;50.768;6.724;2023-08-06T07:20:01;99037.94;;;15.79;87.37
74794;BME280;63320;50.768;6.724;2023-08-06T07:22:26;99034.63;;;15.87;87.97
74794;BME280;63320;50.768;6.724;2023-08-06T07:24:51;99042.03;;;15.93;88.65
74794;BME280;63320;50.768;6.724;2023-08-06T07:27:17;99038.56;;;16.02;87.99
74794;BME280;63320;50.768;6.724;2023-08-06T07:29:42;99033.75;;;15.86;88.87
74794;BME280;63320;50.768;6.724;2023-08-06T07:32:07;99042.03;;;15.93;89.05
74794;BME280;63320;50.768;6.724;2023-08-06T07:34:34;99037.16;;;16.08;87.42
74794;BME280;63320;50.768;6.724;2023-08-06T07:36:59;99039.41;;;16.12;87.77
74794;BME280;63320;50.768;6.724;2023-08-06T07:39:25;99051.94;;;16.10;86.31
74794;BME280;63320;50.768;6.724;2023-08-06T07:41:50;99049.97;;;15.93;86.78
74794;BME280;63320;50.768;6.724;2023-08-06T07:44:15;99053.34;;;16.04;85.54
74794;BME280;63320;50.768;6.724;2023-08-06T07:46:41;99061.97;;;15.87;86.63
74794;BME280;63320;50.768;6.724;2023-08-06T07:49:06;99054.00;;;15.77;87.05
74794;BME280;63320;50.768;6.724;2023-08-06T07:51:33;99048.97;;;15.84;86.94
74794;BME280;63320;50.768;6.724;2023-08-06T07:53:58;99053.03;;;15.88;87.69
74794;BME280;63320;50.768;6.724;2023-08-06T07:56:23;99057.06;;;15.83;89.12
74794;BME280;63320;50.768;6.724;2023-08-06T07:58:49;99057.53;;;15.97;90.56
74794;BME280;63320;50.768;6.724;2023-08-06T08:01:14;99051.25;;;16.08;89.98
74794;BME280;63320;50.768;6.724;2023-08-06T08:03:39;99062.44;;;16.12;90.22
74794;BME280;63320;50.768;6.724;2023-08-06T08:06:05;99063.91;;;15.95;90.42
74794;BME280;63320;50.768;6.724;2023-08-06T08:08:31;99067.84;;;16.00;89.71
74794;BME280;63320;50.768;6.724;2023-08-06T08:10:57;99059.88;;;15.91;91.26
74794;BME280;63320;50.768;6.724;2023-08-06T08:13:22;99065.53;;;15.67;93.66
74794;BME280;63320;50.768;6.724;2023-08-06T08:15:47;99068.34;;;15.75;94.78
74794;BME280;63320;50.768;6.724;2023-08-06T08:18:13;99067.22;;;15.68;96.23
74794;BME280;63320;50.768;6.724;2023-08-06T08:20:38;99072.41;;;15.79;95.61
74794;BME280;63320;50.768;6.724;2023-08-06T08:23:03;99088.06;;;15.61;96.79
74794;BME280;63320;50.768;6.724;2023-08-06T08:25:30;99081.69;;;15.64;96.35
74794;BME280;63320;50.768;6.724;2023-08-06T08:27:55;99080.00;;;15.63;97.98
74794;BME280;63320;50.768;6.724;2023-08-06T08:30:21;99077.44;;;15.61;98.15
74794;BME280;63320;50.768;6.724;2023-08-06T08:32:47;99078.22;;;15.42;97.75
74794;BME280;63320;50.768;6.724;2023-08-06T08:35:12;99087.59;;;15.46;99.27
74794;BME280;63320;50.768;6.724;2023-08-06T08:37:38;99086.03;;;15.44;100.00
74794;BME280;63320;50.768;6.724;2023-08-06T08:40:04;99092.16;;;15.65;99.09
74794;BME280;63320;50.768;6.724;2023-08-06T08:42:31;99100.16;;;15.85;98.41
74794;BME280;63320;50.768;6.724;2023-08-06T08:44:57;99114.91;;;15.16;99.25
74794;BME280;63320;50.768;6.724;2023-08-06T08:47:23;99120.31;;;14.94;100.00
74794;BME280;63320;50.768;6.724;2023-08-06T08:49:52;99115.31;;;15.00;100.00
74794;BME280;63320;50.768;6.724;2023-08-06T08:52:20;99119.00;;;14.88;100.00
74794;BME280;63320;50.768;6.724;2023-08-06T08:54:47;99125.16;;;14.89;100.00
74794;BME280;63320;50.768;6.724;2023-08-06T08:57:13;99126.50;;;14.83;100.00
74794;BME280;63320;50.768;6.724;2023-08-06T08:59:39;99119.44;;;14.72;100.00
74794;BME280;63320;50.768;6.724;2023-08-06T09:02:05;99122.63;;;14.87;100.00
74794;BME280;63320;50.768;6.724;2023-08-06T09:04:34;99115.47;;;14.99;100.00
74794;BME280;63320;50.768;6.724;2023-08-06T09:06:59;99138.03;;;14.50;100.00
74794;BME280;63320;50.768;6.724;2023-08-06T09:09:26;99143.59;;;14.36;100.00
74794;BME280;63320;50.768;6.724;2023-08-06T09:11:57;99166.53;;;14.35;100.00
74794;BME280;63320;50.768;6.724;2023-08-06T09:14:24;99155.16;;;14.23;100.00
74794;BME280;63320;50.768;6.724;2023-08-06T09:16:51;99152.16;;;14.17;100.00
74794;BME280;63320;50.768;6.724;2023-08-06T09:19:17;99159.63;;;14.12;100.00
74794;BME280;63320;50.768;6.724;2023-08-06T09:21:42;99156.72;;;14.15;100.00
74794;BME280;63320;50.768;6.724;2023-08-06T09:24:08;99184.13;;;14.14;100.00
74794;BME280;63320;50.768;6.724;2023-08-06T09:26:34;99164.66;;;14.15;100.00
74794;BME280;63320;50.768;6.724;2023-08-06T09:28:59;99193.38;;;14.08;100.00
74794;BME280;63320;50.768;6.724;2023-08-06T09:31:25;99181.25;;;14.17;100.00
74794;BME280;63320;50.768;6.724;2023-08-06T09:33:59;99183.66;;;14.09;100.00
74794;BME280;63320;50.768;6.724;2023-08-06T09:36:25;99220.19;;;14.04;100.00
74794;BME280;63320;50.768;6.724;2023-08-06T09:38:50;99193.16;;;14.11;100.00
74794;BME280;63320;50.768;6.724;2023-08-06T09:41:26;99208.78;;;13.92;100.00
74794;BME280;63320;50.768;6.724;2023-08-06T09:43:51;99221.03;;;13.82;100.00
74794;BME280;63320;50.768;6.724;2023-08-06T09:46:17;99209.63;;;13.92;100.00
74794;BME280;63320;50.768;6.724;2023-08-06T09:48:45;99215.59;;;13.94;100.00
74794;BME280;63320;50.768;6.724;2023-08-06T09:51:13;99219.44;;;13.90;100.00
74794;BME280;63320;50.768;6.724;2023-08-06T09:53:39;99232.78;;;13.66;100.00
74794;BME280;63320;50.768;6.724;2023-08-06T09:56:05;99238.88;;;13.56;100.00
74794;BME280;63320;50.768;6.724;2023-08-06T09:58:32;99230.00;;;13.21;100.00
74794;BME280;63320;50.768;6.724;2023-08-06T10:00:57;99252.63;;;13.13;100.00
74794;BME280;63320;50.768;6.724;2023-08-06T10:03:24;99285.50;;;13.20;100.00
74794;BME280;63320;50.768;6.724;2023-08-06T10:05:50;99249.75;;;13.16;100.00
74794;BME280;63320;50.768;6.724;2023-08-06T10:08:17;99271.31;;;13.10;100.00
74794;BME280;63320;50.768;6.724;2023-08-06T10:10:43;99274.97;;;12.96;100.00
74794;BME280;63320;50.768;6.724;2023-08-06T10:13:09;99295.66;;;12.89;100.00
74794;BME280;63320;50.768;6.724;2023-08-06T10:15:36;99280.91;;;12.87;100.00
74794;BME280;63320;50.768;6.724;2023-08-06T10:18:02;99268.63;;;12.99;100.00
74794;BME280;63320;50.768;6.724;2023-08-06T10:20:33;99317.28;;;12.94;100.00
74794;BME280;63320;50.768;6.724;2023-08-06T10:23:00;99293.78;;;12.91;100.00
74794;BME280;63320;50.768;6.724;2023-08-06T10:25:30;99292.53;;;13.08;100.00
74794;BME280;63320;50.768;6.724;2023-08-06T10:27:55;99288.84;;;13.11;100.00
74794;BME280;63320;50.768;6.724;2023-08-06T10:30:22;99300.69;;;13.05;100.00
74794;BME280;63320;50.768;6.724;2023-08-06T10:32:48;99304.56;;;13.12;100.00
74794;BME280;63320;50.768;6.724;2023-08-06T10:35:28;99312.44;;;13.01;100.00
74794;BME280;63320;50.768;6.724;2023-08-06T10:37:53;99317.41;;;12.93;100.00
74794;BME280;63320;50.768;6.724;2023-08-06T10:40:22;99301.53;;;13.06;100.00
74794;BME280;63320;50.768;6.724;2023-08-06T10:42:49;99314.81;;;13.04;100.00
74794;BME280;63320;50.768;6.724;2023-08-06T10:45:15;99325.72;;;13.00;100.00
74794;BME280;63320;50.768;6.724;2023-08-06T10:47:41;99327.50;;;12.99;100.00
74794;BME280;63320;50.768;6.724;2023-08-06T10:50:07;99343.47;;;12.98;100.00
74794;BME280;63320;50.768;6.724;2023-08-06T10:52:33;99321.13;;;13.14;100.00
74794;BME280;63320;50.768;6.724;2023-08-06T10:54:58;99351.78;;;13.04;100.00
74794;BME280;63320;50.768;6.724;2023-08-06T10:57:24;99331.28;;;13.08;100.00
74794;BME280;63320;50.768;6.724;2023-08-06T10:59:51;99329.78;;;13.16;100.00
74794;BME280;63320;50.768;6.724;2023-08-06T11:02:16;99350.72;;;13.07;100.00
74794;BME280;63320;50.768;6.724;2023-08-06T11:04:42;99343.31;;;13.12;100.00
74794;BME280;63320;50.768;6.724;2023-08-06T11:07:07;99355.56;;;13.13;100.00
74794;BME280;63320;50.768;6.724;2023-08-06T11:09:32;99342.34;;;13.26;100.00
74794;BME280;63320;50.768;6.724;2023-08-06T11:11:58;99346.03;;;13.23;100.00
74794;BME280;63320;50.768;6.724;2023-08-06T11:14:23;99344.03;;;13.27;100.00
74794;BME280;63320;50.768;6.724;2023-08-06T11:16:50;99340.56;;;13.26;100.00
74794;BME280;63320;50.768;6.724;2023-08-06T11:19:15;99383.72;;;13.25;100.00
74794;BME280;63320;50.768;6.724;2023-08-06T11:21:41;99348.97;;;13.31;100.00
74794;BME280;63320;50.768;6.724;2023-08-06T11:24:06;99339.00;;;13.35;100.00
74794;BME280;63320;50.768;6.724;2023-08-06T11:26:31;99355.69;;;13.35;100.00
74794;BME280;63320;50.768;6.724;2023-08-06T11:28:57;99357.63;;;13.33;100.00
74794;BME280;63320;50.768;6.724;2023-08-06T11:31:23;99362.72;;;13.47;100.00
74794;BME280;63320;50.768;6.724;2023-08-06T11:33:51;99358.88;;;13.40;100.00
74794;BME280;63320;50.768;6.724;2023-08-06T11:36:28;99361.97;;;13.69;100.00
74794;BME280;63320;50.768;6.724;2023-08-06T11:38:54;99375.22;;;13.45;100.00
74794;BME280;63320;50.768;6.724;2023-08-06T11:41:19;99364.41;;;13.48;100.00
74794;BME280;63320;50.768;6.724;2023-08-06T11:43:45;99374.84;;;13.50;100.00
74794;BME280;63320;50.768;6.724;2023-08-06T11:46:11;99370.81;;;13.57;100.00
74794;BME280;63320;50.768;6.724;2023-08-06T11:48:53;99364.41;;;13.72;100.00
74794;BME280;63320;50.768;6.724;2023-08-06T11:51:18;99379.91;;;13.77;100.00
74794;BME280;63320;50.768;6.724;2023-08-06T11:53:48;99370.06;;;13.79;100.00
74794;BME280;63320;50.768;6.724;2023-08-06T11:56:14;99388.03;;;13.74;100.00
74794;BME280;63320;50.768;6.724;2023-08-06T11:58:40;99382.31;;;13.80;100.00
74794;BME280;63320;50.768;6.724;2023-08-06T12:01:06;99387.50;;;13.82;100.00
74794;BME280;63320;50.768;6.724;2023-08-06T12:03:31;99386.31;;;13.86;100.00
74794;BME280;63320;50.768;6.724;2023-08-06T12:05:58;99385.72;;;13.93;100.00
74794;BME280;63320;50.768;6.724;2023-08-06T12:08:26;99390.88;;;13.95;100.00
74794;BME280;63320;50.768;6.724;2023-08-06T12:10:52;99398.25;;;14.03;100.00
74794;BME280;63320;50.768;6.724;2023-08-06T12:13:17;99392.69;;;13.94;100.00
74794;BME280;63320;50.768;6.724;2023-08-06T12:15:42;99384.53;;;13.97;100.00
74794;BME280;63320;50.768;6.724;2023-08-06T12:18:08;99389.00;;;14.08;100.00
74794;BME280;63320;50.768;6.724;2023-08-06T12:20:33;99402.19;;;13.97;100.00
74794;BME280;63320;50.768;6.724;2023-08-06T12:23:00;99400.84;;;13.91;100.00
74794;BME280;63320;50.768;6.724;2023-08-06T12:25:25;99395.78;;;13.88;100.00
74794;BME280;63320;50.768;6.724;2023-08-06T12:27:51;99422.22;;;13.88;100.00
74794;BME280;63320;50.768;6.724;2023-08-06T12:30:16;99398.22;;;13.91;100.00
74794;BME280;63320;50.768;6.724;2023-08-06T12:32:41;99392.69;;;13.94;100.00
74794;BME280;63320;50.768;6.724;2023-08-06T12:35:08;99403.25;;;13.94;100.00
74794;BME280;63320;50.768;6.724;2023-08-06T12:37:33;99408.94;;;14.01;100.00
74794;BME280;63320;50.768;6.724;2023-08-06T12:40:00;99424.84;;;14.12;100.00
74794;BME280;63320;50.768;6.724;2023-08-06T12:42:25;99388.88;;;14.10;100.00
74794;BME280;63320;50.768;6.724;2023-08-06T12:44:51;99409.22;;;14.20;100.00
74794;BME280;63320;50.768;6.724;2023-08-06T12:47:17;99417.28;;;14.19;100.00
74794;BME280;63320;50.768;6.724;2023-08-06T12:49:43;99404.06;;;14.19;100.00
74794;BME280;63320;50.768;6.724;2023-08-06T12:52:08;99407.88;;;14.15;100.00